Time;durP1;ratioP1;P1;durP2;ratioP2;P2;SDS_P1;SDS_P2;PMS_P1;PMS_P2;Temp;Humidity;BMP_temperature;BMP_pressure;BME280_temperature;BME280_humidity;BME280_pressure;Samples;Min_cycle;Max_cycle;Signal;HPM_P1;HPM_P2
2022/09/10 00:00:37;;;;;;;2.20;1.70;;;16.80;98.70;;;;;;5103433;28;20300;-86
2022/09/10 00:03:03;;;;;;;4.47;2.30;;;16.70;99.30;;;;;;5101349;28;20188;-86
2022/09/10 00:05:29;;;;;;;1.67;1.57;;;16.60;99.70;;;;;;5087739;28;20202;-86
2022/09/10 00:07:55;;;;;;;3.87;2.00;;;16.50;99.90;;;;;;5091141;28;20185;-86
2022/09/10 00:10:21;;;;;;;1.80;1.70;;;16.50;99.90;;;;;;5086188;28;20372;-86
2022/09/10 00:12:47;;;;;;;2.70;1.90;;;16.40;99.90;;;;;;5099228;28;20188;-85
2022/09/10 00:15:16;;;;;;;2.10;1.87;;;16.40;99.90;;;;;;5105709;28;20194;-86
2022/09/10 00:17:42;;;;;;;3.33;1.97;;;16.50;99.90;;;;;;5103271;28;20185;-86
2022/09/10 00:20:09;;;;;;;3.27;1.70;;;16.40;99.90;;;;;;5106966;28;20213;-85
2022/09/10 00:22:35;;;;;;;1.90;1.80;;;16.40;99.90;;;;;;5093961;28;20179;-86
2022/09/10 00:25:01;;;;;;;3.17;2.00;;;16.40;99.90;;;;;;5096197;28;20208;-85
2022/09/10 00:27:26;;;;;;;2.57;2.07;;;16.30;99.90;;;;;;5105490;28;20640;-85
2022/09/10 00:29:53;;;;;;;3.50;1.90;;;16.30;99.90;;;;;;5106324;28;20217;-85
2022/09/10 00:32:22;;;;;;;4.23;2.10;;;16.40;99.90;;;;;;5088328;28;20193;-85
2022/09/10 00:34:47;;;;;;;1.90;1.80;;;16.20;99.90;;;;;;5104219;28;20233;-88
2022/09/10 00:37:15;;;;;;;3.23;1.80;;;16.10;99.90;;;;;;5120821;27;20189;-87
2022/09/10 00:39:41;;;;;;;3.20;1.90;;;16.20;99.90;;;;;;5113264;28;20219;-86
2022/09/10 00:42:10;;;;;;;2.27;2.03;;;16.10;99.90;;;;;;5105677;28;20187;-86
2022/09/10 00:44:38;;;;;;;2.37;2.10;;;16.00;99.90;;;;;;5106263;28;20178;-85
2022/09/10 00:47:22;;;;;;;4.13;2.13;;;15.90;99.90;;;;;;5107549;28;20177;-85
2022/09/10 00:49:53;;;;;;;4.37;2.07;;;15.90;99.90;;;;;;5106739;28;20215;-85
2022/09/10 00:52:19;;;;;;;2.87;1.97;;;15.90;99.90;;;;;;5094521;28;20223;-85
2022/09/10 00:54:46;;;;;;;4.97;2.30;;;15.80;99.90;;;;;;5097770;28;20264;-85
2022/09/10 00:57:20;;;;;;;4.10;2.07;;;15.80;99.90;;;;;;5106985;28;20187;-85
2022/09/10 00:59:52;;;;;;;2.20;2.00;;;15.80;99.90;;;;;;5105939;28;20203;-86
2022/09/10 01:02:18;;;;;;;2.27;2.07;;;15.80;99.90;;;;;;5099270;28;20239;-86
2022/09/10 01:04:45;;;;;;;3.40;1.77;;;15.90;99.90;;;;;;5102687;28;20184;-85
2022/09/10 01:07:14;;;;;;;2.00;1.90;;;15.80;99.90;;;;;;5093353;28;20314;-87
2022/09/10 01:09:40;;;;;;;2.30;2.10;;;15.80;99.90;;;;;;5105422;28;20242;-86
2022/09/10 01:12:26;;;;;;;1.80;1.70;;;15.80;99.90;;;;;;5103045;28;20189;-85
2022/09/10 01:15:09;;;;;;;2.53;1.70;;;15.80;99.90;;;;;;5101568;28;20190;-86
2022/09/10 01:18:02;;;;;;;2.97;1.80;;;15.80;99.90;;;;;;5089428;28;20191;-86
2022/09/10 01:20:47;;;;;;;3.53;2.40;;;15.60;99.90;;;;;;5097064;28;20573;-87
2022/09/10 01:23:25;;;;;;;3.47;2.03;;;15.80;99.90;;;;;;5097843;28;20194;-86
2022/09/10 01:26:02;;;;;;;2.50;1.87;;;15.80;99.90;;;;;;5103737;28;20204;-85
2022/09/10 01:28:46;;;;;;;3.40;2.13;;;15.90;99.90;;;;;;5096625;28;20190;-86
2022/09/10 01:31:24;;;;;;;1.80;1.70;;;15.80;99.90;;;;;;5103349;28;20179;-86
2022/09/10 01:34:03;;;;;;;2.37;2.10;;;15.90;99.90;;;;;;5105468;28;20286;-85
2022/09/10 01:36:33;;;;;;;2.20;2.00;;;15.90;99.90;;;;;;5104409;28;20187;-88
2022/09/10 01:39:01;;;;;;;1.80;1.70;;;15.90;99.90;;;;;;5103486;28;20216;-85
2022/09/10 01:41:27;;;;;;;1.97;1.83;;;15.90;99.90;;;;;;5104644;28;20197;-86
2022/09/10 01:43:52;;;;;;;2.07;1.80;;;16.00;99.90;;;;;;5091986;28;20197;-87
2022/09/10 01:46:30;;;;;;;1.87;1.67;;;15.90;99.90;;;;;;5104198;28;20662;-86
2022/09/10 01:49:25;;;;;;;1.77;1.67;;;15.90;99.90;;;;;;5100630;28;20198;-85
2022/09/10 01:52:15;;;;;;;2.00;1.80;;;16.00;99.90;;;;;;5105260;28;20175;-87
2022/09/10 01:55:01;;;;;;;3.53;2.10;;;16.00;99.90;;;;;;5087376;28;20201;-86
2022/09/10 01:57:43;;;;;;;2.73;1.90;;;15.90;99.90;;;;;;5087824;28;20183;-85
2022/09/10 02:00:14;;;;;;;3.10;2.47;;;15.80;99.90;;;;;;5093479;28;20218;-88
2022/09/10 02:03:03;;;;;;;4.23;2.00;;;15.80;99.90;;;;;;5096547;28;20186;-86
2022/09/10 02:05:30;;;;;;;2.37;2.17;;;15.80;99.90;;;;;;5103028;28;20224;-85
2022/09/10 02:08:03;;;;;;;3.47;2.23;;;15.80;99.90;;;;;;5102870;28;20171;-86
2022/09/10 02:10:30;;;;;;;2.77;2.20;;;15.80;99.90;;;;;;5104175;28;20222;-85
2022/09/10 02:12:56;;;;;;;4.80;2.30;;;15.80;99.90;;;;;;5100157;28;20193;-86
2022/09/10 02:15:24;;;;;;;3.33;2.23;;;15.80;99.90;;;;;;5110244;28;20187;-88
2022/09/10 02:17:52;;;;;;;2.27;1.83;;;15.80;99.90;;;;;;5101514;28;20257;-87
2022/09/10 02:20:20;;;;;;;3.63;2.13;;;15.90;99.90;;;;;;5103324;28;20214;-86
2022/09/10 02:22:55;;;;;;;2.93;1.97;;;15.90;99.90;;;;;;5105198;28;20244;-85
2022/09/10 02:25:23;;;;;;;2.20;1.83;;;15.90;99.90;;;;;;5103231;28;20183;-86
2022/09/10 02:27:48;;;;;;;2.67;2.10;;;16.00;99.90;;;;;;5094468;28;20537;-86
2022/09/10 02:30:15;;;;;;;2.20;2.00;;;16.00;99.90;;;;;;5084181;28;20298;-86
2022/09/10 02:32:41;;;;;;;2.10;1.90;;;16.00;99.90;;;;;;5105262;28;20195;-85
2022/09/10 02:35:08;;;;;;;2.17;2.00;;;16.00;99.90;;;;;;5094071;28;20198;-86
2022/09/10 02:37:34;;;;;;;2.27;1.90;;;16.10;99.90;;;;;;5093983;28;20197;-86
2022/09/10 02:40:00;;;;;;;2.97;2.20;;;16.00;99.90;;;;;;5094048;28;20217;-85
2022/09/10 02:42:26;;;;;;;2.83;2.10;;;16.00;99.90;;;;;;5089593;28;20183;-87
2022/09/10 02:44:52;;;;;;;2.20;2.00;;;16.10;99.90;;;;;;5102635;28;20186;-86
2022/09/10 02:47:18;;;;;;;2.07;1.87;;;16.10;99.90;;;;;;5097112;28;20187;-85
2022/09/10 02:49:44;;;;;;;3.53;2.27;;;16.20;99.90;;;;;;5103977;28;20201;-86
2022/09/10 02:52:11;;;;;;;2.10;1.90;;;16.10;99.90;;;;;;5098506;28;20210;-86
2022/09/10 02:54:39;;;;;;;3.57;1.90;;;16.10;99.90;;;;;;5097919;28;20194;-85
2022/09/10 02:57:04;;;;;;;3.03;2.03;;;16.00;99.90;;;;;;5106236;28;20185;-86
2022/09/10 02:59:31;;;;;;;2.00;1.90;;;16.10;99.90;;;;;;5112117;28;20222;-84
2022/09/10 03:01:57;;;;;;;2.63;1.97;;;16.00;99.90;;;;;;5108511;28;20190;-85
2022/09/10 03:04:22;;;;;;;1.93;1.83;;;15.90;99.90;;;;;;5084451;28;20213;-85
2022/09/10 03:06:48;;;;;;;2.00;1.80;;;15.90;99.90;;;;;;5089999;28;20249;-84
2022/09/10 03:09:14;;;;;;;2.87;2.00;;;16.00;99.90;;;;;;5088244;28;20246;-85
2022/09/10 03:11:40;;;;;;;2.13;2.00;;;16.10;99.90;;;;;;5094669;28;20201;-84
2022/09/10 03:14:09;;;;;;;1.80;1.70;;;16.10;99.90;;;;;;5088169;28;20179;-85
2022/09/10 03:16:35;;;;;;;2.60;2.10;;;16.00;99.90;;;;;;5108098;28;20190;-85
2022/09/10 03:19:01;;;;;;;2.17;1.80;;;15.90;99.90;;;;;;5107680;28;20202;-85
2022/09/10 03:21:27;;;;;;;2.67;1.80;;;16.00;99.90;;;;;;5099559;28;20193;-85
2022/09/10 03:23:54;;;;;;;2.03;1.90;;;16.00;99.90;;;;;;5107593;28;20171;-86
2022/09/10 03:26:21;;;;;;;2.80;1.90;;;15.80;99.90;;;;;;5117738;28;20179;-86
2022/09/10 03:28:48;;;;;;;3.03;2.10;;;15.90;99.90;;;;;;5104276;28;20194;-85
2022/09/10 03:31:15;;;;;;;2.43;2.10;;;15.90;99.90;;;;;;5092838;28;20184;-85
2022/09/10 03:33:41;;;;;;;2.30;2.10;;;15.80;99.90;;;;;;5085655;28;20194;-85
2022/09/10 03:36:17;;;;;;;2.00;1.80;;;15.90;99.90;;;;;;5081467;28;20187;-85
2022/09/10 03:38:43;;;;;;;3.47;2.03;;;15.90;99.90;;;;;;5089107;28;20664;-85
2022/09/10 03:41:10;;;;;;;2.30;2.10;;;15.90;99.90;;;;;;5093514;28;20248;-85
2022/09/10 03:43:36;;;;;;;2.13;1.93;;;15.80;99.90;;;;;;5106684;28;20186;-85
2022/09/10 03:46:02;;;;;;;2.30;1.83;;;15.80;99.90;;;;;;5104551;28;20198;-84
2022/09/10 03:48:28;;;;;;;3.90;1.93;;;16.00;99.90;;;;;;5095508;28;20183;-85
2022/09/10 03:50:55;;;;;;;3.50;2.07;;;16.10;99.90;;;;;;5103508;28;20278;-85
2022/09/10 03:53:22;;;;;;;3.43;2.00;;;16.10;99.90;;;;;;5096567;28;20179;-85
2022/09/10 03:55:49;;;;;;;6.27;2.20;;;16.10;99.90;;;;;;5093152;28;20182;-86
2022/09/10 03:58:16;;;;;;;2.93;1.80;;;16.10;99.90;;;;;;5096085;28;20203;-86
2022/09/10 04:00:42;;;;;;;2.73;1.80;;;16.10;99.90;;;;;;5090762;28;20242;-85
2022/09/10 04:03:09;;;;;;;2.37;2.00;;;16.00;99.90;;;;;;5097650;28;20593;-85
2022/09/10 04:05:39;;;;;;;4.57;2.20;;;16.00;99.90;;;;;;5101664;28;20189;-86
2022/09/10 04:08:06;;;;;;;3.63;2.00;;;16.10;99.90;;;;;;5085315;28;20228;-86
2022/09/10 04:10:32;;;;;;;1.87;1.77;;;16.00;99.90;;;;;;5081861;28;20231;-86
2022/09/10 04:12:58;;;;;;;2.40;1.97;;;16.10;99.90;;;;;;5106629;28;20175;-85
2022/09/10 04:15:24;;;;;;;2.63;2.27;;;16.10;99.90;;;;;;5100645;28;20186;-86
2022/09/10 04:17:51;;;;;;;2.53;2.10;;;16.10;99.90;;;;;;5094548;28;20187;-86
2022/09/10 04:20:22;;;;;;;2.20;2.00;;;16.10;99.90;;;;;;5097633;28;20271;-85
2022/09/10 04:22:50;;;;;;;2.53;1.90;;;16.10;99.90;;;;;;5099604;28;20519;-86
2022/09/10 04:25:17;;;;;;;2.40;1.70;;;16.00;99.90;;;;;;5101984;28;20176;-86
2022/09/10 04:27:43;;;;;;;5.33;2.03;;;16.00;99.90;;;;;;5102918;28;20186;-86
2022/09/10 04:30:11;;;;;;;2.07;1.97;;;16.10;99.90;;;;;;5109530;28;20191;-86
2022/09/10 04:32:37;;;;;;;2.23;1.80;;;16.00;99.90;;;;;;5098218;28;20179;-85
2022/09/10 04:35:04;;;;;;;4.73;2.10;;;16.00;99.90;;;;;;5107924;28;20191;-86
2022/09/10 04:37:30;;;;;;;3.23;2.07;;;16.10;99.90;;;;;;5086299;28;20187;-86
2022/09/10 04:39:56;;;;;;;2.77;1.90;;;16.00;99.90;;;;;;5098257;28;20221;-86
2022/09/10 04:42:23;;;;;;;1.90;1.80;;;16.00;99.90;;;;;;5106884;28;20183;-85
2022/09/10 04:44:48;;;;;;;2.80;1.80;;;16.00;99.90;;;;;;5102977;28;20195;-85
2022/09/10 04:47:15;;;;;;;2.03;1.83;;;16.00;99.90;;;;;;5094784;28;20184;-85
2022/09/10 04:49:42;;;;;;;2.10;1.87;;;16.00;99.90;;;;;;5106675;28;20214;-85
2022/09/10 04:52:09;;;;;;;2.10;1.90;;;16.00;99.90;;;;;;5090808;28;20206;-88
2022/09/10 04:54:36;;;;;;;1.77;1.67;;;16.00;99.90;;;;;;5100907;28;20187;-86
2022/09/10 04:57:03;;;;;;;2.03;1.67;;;16.00;99.90;;;;;;5116250;28;20171;-87
2022/09/10 04:59:28;;;;;;;2.17;1.97;;;16.00;99.90;;;;;;5116249;28;20210;-87
2022/09/10 05:01:54;;;;;;;3.77;2.20;;;16.00;99.90;;;;;;5111331;28;20194;-85
2022/09/10 05:04:20;;;;;;;1.70;1.60;;;15.90;99.90;;;;;;5105129;28;20237;-88
2022/09/10 05:06:49;;;;;;;2.90;1.90;;;15.90;99.90;;;;;;5104821;28;20177;-85
2022/09/10 05:09:18;;;;;;;2.17;1.97;;;15.90;99.90;;;;;;5097767;28;20218;-87
2022/09/10 05:11:45;;;;;;;2.07;1.83;;;15.90;99.90;;;;;;5104558;28;20179;-86
2022/09/10 05:14:12;;;;;;;2.10;1.83;;;15.90;99.90;;;;;;5091639;28;20204;-86
2022/09/10 05:16:38;;;;;;;5.40;2.30;;;15.90;99.90;;;;;;5091424;28;20171;-85
2022/09/10 05:19:05;;;;;;;2.50;1.97;;;15.90;99.90;;;;;;5105775;28;20228;-86
2022/09/10 05:21:31;;;;;;;2.40;2.20;;;15.80;99.90;;;;;;5101969;28;20223;-85
2022/09/10 05:23:56;;;;;;;2.97;1.83;;;15.90;99.90;;;;;;5091918;28;20185;-85
2022/09/10 05:26:23;;;;;;;1.90;1.80;;;16.00;99.90;;;;;;5105258;28;20182;-86
2022/09/10 05:28:52;;;;;;;2.07;1.90;;;16.00;99.90;;;;;;5102333;28;20208;-85
2022/09/10 05:31:18;;;;;;;4.50;2.00;;;15.90;99.90;;;;;;5097182;28;20271;-86
2022/09/10 05:33:45;;;;;;;5.63;2.10;;;15.80;99.90;;;;;;5093126;28;20207;-85
2022/09/10 05:36:11;;;;;;;5.67;2.20;;;15.90;99.90;;;;;;5100363;28;20182;-85
2022/09/10 05:38:37;;;;;;;5.00;1.90;;;15.90;99.90;;;;;;5101354;28;20192;-85
2022/09/10 05:41:05;;;;;;;1.77;1.70;;;15.90;99.90;;;;;;5088735;28;20684;-84
2022/09/10 05:43:31;;;;;;;4.37;2.20;;;15.90;99.90;;;;;;5085628;28;20509;-85
2022/09/10 05:45:57;;;;;;;2.80;2.23;;;15.80;99.90;;;;;;5096427;28;20834;-85
2022/09/10 05:48:23;;;;;;;4.47;2.03;;;15.80;99.90;;;;;;5095110;28;20183;-85
2022/09/10 05:50:49;;;;;;;3.70;1.90;;;15.90;99.90;;;;;;5098347;28;20213;-85
2022/09/10 05:53:15;;;;;;;4.33;2.03;;;15.80;99.90;;;;;;5100360;28;20196;-84
2022/09/10 05:55:42;;;;;;;2.27;2.00;;;15.70;99.90;;;;;;5106863;28;20206;-85
2022/09/10 05:58:08;;;;;;;2.37;2.20;;;15.80;99.90;;;;;;5100729;28;20179;-81
2022/09/10 06:00:35;;;;;;;2.10;2.00;;;15.80;99.90;;;;;;5094488;28;20221;-85
2022/09/10 06:03:01;;;;;;;1.90;1.80;;;15.80;99.90;;;;;;5097060;28;20202;-85
2022/09/10 06:05:27;;;;;;;3.83;2.00;;;15.90;99.90;;;;;;5098653;28;20181;-85
2022/09/10 06:07:53;;;;;;;3.33;2.13;;;16.00;99.90;;;;;;5095098;28;20178;-85
2022/09/10 06:10:18;;;;;;;3.33;2.07;;;16.00;99.90;;;;;;5101494;28;20233;-85
2022/09/10 06:12:46;;;;;;;3.37;2.20;;;16.00;99.90;;;;;;5110912;28;20192;-86
2022/09/10 06:15:12;;;;;;;2.00;1.90;;;16.00;99.90;;;;;;5097316;28;20186;-85
2022/09/10 06:17:37;;;;;;;4.00;2.20;;;16.00;99.90;;;;;;5099242;28;20196;-84
2022/09/10 06:20:04;;;;;;;1.87;1.77;;;15.90;99.90;;;;;;5086644;28;20681;-85
2022/09/10 06:22:30;;;;;;;2.37;1.90;;;15.90;99.90;;;;;;5103898;28;20356;-85
2022/09/10 06:24:56;;;;;;;3.30;2.00;;;15.90;99.90;;;;;;5085111;28;20180;-85
2022/09/10 06:27:22;;;;;;;2.10;1.90;;;16.00;99.90;;;;;;5092646;28;20306;-85
2022/09/10 06:29:48;;;;;;;2.87;2.07;;;16.00;99.90;;;;;;5103565;28;20227;-85
2022/09/10 06:32:14;;;;;;;3.27;2.30;;;16.00;99.90;;;;;;5088877;28;20689;-85
2022/09/10 06:34:39;;;;;;;3.57;2.17;;;16.00;99.90;;;;;;5094526;28;20207;-85
2022/09/10 06:37:05;;;;;;;4.97;2.27;;;16.00;99.90;;;;;;5111438;28;20191;-85
2022/09/10 06:39:31;;;;;;;3.90;2.03;;;16.00;99.90;;;;;;5097457;28;20226;-84
2022/09/10 06:41:57;;;;;;;3.23;2.10;;;15.90;99.90;;;;;;5104307;28;20190;-85
2022/09/10 06:44:23;;;;;;;2.20;2.00;;;16.00;99.90;;;;;;5089951;28;20510;-85
2022/09/10 06:46:48;;;;;;;3.93;2.00;;;16.00;99.90;;;;;;5098845;28;20187;-85
2022/09/10 06:49:15;;;;;;;1.90;1.80;;;16.00;99.90;;;;;;5087018;28;20203;-86
2022/09/10 06:51:41;;;;;;;2.57;2.20;;;16.10;99.90;;;;;;5097515;28;20242;-85
2022/09/10 06:54:07;;;;;;;2.37;1.70;;;16.00;99.90;;;;;;5103121;28;20281;-85
2022/09/10 06:56:33;;;;;;;1.90;1.80;;;16.10;99.90;;;;;;5103151;28;20533;-85
2022/09/10 06:58:58;;;;;;;2.70;2.00;;;16.10;99.90;;;;;;5099607;28;20348;-85
2022/09/10 07:01:24;;;;;;;1.90;1.70;;;16.20;99.90;;;;;;5098715;28;20220;-85
2022/09/10 07:03:58;;;;;;;2.43;2.00;;;16.20;99.90;;;;;;5099018;28;20587;-85
2022/09/10 07:06:25;;;;;;;3.10;2.00;;;16.20;99.90;;;;;;5103066;28;20209;-85
2022/09/10 07:08:57;;;;;;;3.07;2.20;;;16.20;99.90;;;;;;5092166;28;20193;-85
2022/09/10 07:11:29;;;;;;;2.40;1.83;;;16.30;99.90;;;;;;5082370;28;20229;-84
2022/09/10 07:13:55;;;;;;;2.10;1.90;;;16.30;99.90;;;;;;5104797;28;20184;-85
2022/09/10 07:16:22;;;;;;;2.80;1.90;;;16.40;99.90;;;;;;5090400;28;20188;-85
2022/09/10 07:18:53;;;;;;;2.00;1.90;;;16.50;99.90;;;;;;5085622;28;20212;-85
2022/09/10 07:21:20;;;;;;;3.03;1.80;;;16.60;99.90;;;;;;5096922;28;20272;-85
2022/09/10 07:23:47;;;;;;;4.70;2.20;;;16.70;99.90;;;;;;5096876;28;20182;-83
2022/09/10 07:26:18;;;;;;;2.30;1.97;;;16.90;99.90;;;;;;5095404;28;20199;-85
2022/09/10 07:28:45;;;;;;;2.00;1.80;;;16.80;99.90;;;;;;5103597;28;20551;-84
2022/09/10 07:31:18;;;;;;;2.53;2.00;;;16.70;99.90;;;;;;5104212;28;20208;-86
2022/09/10 07:33:46;;;;;;;2.13;1.80;;;16.80;99.90;;;;;;5102286;28;20224;-84
2022/09/10 07:36:12;;;;;;;3.53;2.10;;;16.90;99.90;;;;;;5083834;28;20191;-84
2022/09/10 07:38:39;;;;;;;3.10;1.97;;;16.90;99.90;;;;;;5086244;28;20520;-84
2022/09/10 07:41:06;;;;;;;3.03;1.70;;;17.00;99.90;;;;;;5100739;28;20231;-84
2022/09/10 07:43:32;;;;;;;1.90;1.70;;;16.90;99.90;;;;;;5092758;28;20254;-84
2022/09/10 07:45:58;;;;;;;1.97;1.70;;;16.80;99.90;;;;;;5097002;28;20202;-85
2022/09/10 07:48:25;;;;;;;3.23;1.77;;;16.80;99.90;;;;;;5094198;28;20183;-85
2022/09/10 07:50:51;;;;;;;2.00;1.80;;;16.80;99.90;;;;;;5077404;28;20188;-85
2022/09/10 07:53:17;;;;;;;3.70;1.80;;;16.90;99.90;;;;;;5072828;28;20189;-86
2022/09/10 07:55:42;;;;;;;1.80;1.67;;;16.90;99.90;;;;;;5078324;28;20236;-85
2022/09/10 07:58:09;;;;;;;2.20;2.00;;;16.90;99.90;;;;;;5090449;28;20589;-85
2022/09/10 08:00:34;;;;;;;2.77;1.90;;;17.00;99.90;;;;;;5090308;28;20233;-85
2022/09/10 08:03:01;;;;;;;3.13;2.07;;;17.10;99.90;;;;;;5087114;28;20199;-85
2022/09/10 08:05:27;;;;;;;1.80;1.70;;;17.10;99.90;;;;;;5083554;28;20187;-85
2022/09/10 08:07:53;;;;;;;2.00;1.70;;;17.00;99.90;;;;;;5097323;28;20209;-85
2022/09/10 08:10:19;;;;;;;4.13;1.80;;;17.10;99.90;;;;;;5091400;28;20225;-85
2022/09/10 08:12:45;;;;;;;1.83;1.73;;;17.10;99.90;;;;;;5088508;28;20478;-85
2022/09/10 08:15:11;;;;;;;1.83;1.73;;;17.40;99.80;;;;;;5086958;28;20208;-85
2022/09/10 08:17:37;;;;;;;2.10;1.90;;;17.60;97.80;;;;;;5100835;28;20193;-85
2022/09/10 08:20:06;;;;;;;1.73;1.63;;;17.50;98.40;;;;;;5097234;28;20216;-86
2022/09/10 08:22:33;;;;;;;1.90;1.70;;;17.50;98.40;;;;;;5099777;28;20180;-86
2022/09/10 08:25:00;;;;;;;2.00;1.90;;;17.40;97.90;;;;;;5104132;28;20211;-86
2022/09/10 08:27:25;;;;;;;1.87;1.70;;;17.40;98.90;;;;;;5096873;28;20204;-85
2022/09/10 08:29:52;;;;;;;3.00;1.80;;;17.40;98.00;;;;;;5105650;28;20223;-86
2022/09/10 08:32:18;;;;;;;2.63;1.80;;;17.40;98.60;;;;;;5102780;28;20176;-85
2022/09/10 08:34:43;;;;;;;2.00;1.80;;;17.40;98.80;;;;;;5099033;28;20189;-86
2022/09/10 08:37:09;;;;;;;2.17;1.97;;;17.60;97.80;;;;;;5098634;28;20198;-86
2022/09/10 08:39:35;;;;;;;2.00;1.80;;;17.60;97.40;;;;;;5090384;28;20219;-86
2022/09/10 08:42:08;;;;;;;1.80;1.70;;;17.50;97.50;;;;;;5094707;28;20252;-86
2022/09/10 08:44:47;;;;;;;2.50;1.93;;;17.60;97.30;;;;;;5100281;28;20183;-85
2022/09/10 08:47:31;;;;;;;2.50;1.97;;;17.60;96.30;;;;;;5085614;28;20183;-85
2022/09/10 08:50:12;;;;;;;2.00;1.80;;;17.60;97.30;;;;;;5092716;28;20215;-85
2022/09/10 08:52:52;;;;;;;2.03;1.80;;;17.50;97.60;;;;;;5094730;28;20193;-86
2022/09/10 08:55:21;;;;;;;2.33;1.80;;;17.30;99.20;;;;;;5105566;28;20197;-86
2022/09/10 08:57:55;;;;;;;3.63;2.17;;;17.50;98.90;;;;;;5107450;28;20190;-83
2022/09/10 09:00:25;;;;;;;5.07;2.10;;;17.60;97.90;;;;;;5110206;28;20221;-89
2022/09/10 09:03:04;;;;;;;2.90;2.40;;;17.70;96.50;;;;;;5104645;28;20558;-89
2022/09/10 09:05:46;;;;;;;2.30;1.90;;;17.80;97.30;;;;;;5094014;28;20169;-85
2022/09/10 09:08:16;;;;;;;4.30;2.50;;;17.90;95.30;;;;;;5097670;28;20310;-85
2022/09/10 09:11:09;;;;;;;4.37;2.30;;;18.00;94.90;;;;;;5100777;28;20234;-87
2022/09/10 09:13:58;;;;;;;2.83;1.80;;;18.30;95.50;;;;;;5095182;28;20194;-86
2022/09/10 09:16:43;;;;;;;3.33;2.13;;;18.70;95.60;;;;;;5097052;28;20224;-86
2022/09/10 09:19:17;;;;;;;4.30;2.30;;;18.50;93.30;;;;;;5101396;28;20208;-85
2022/09/10 09:21:50;;;;;;;4.30;2.33;;;18.50;93.20;;;;;;5110170;28;20189;-85
2022/09/10 09:24:40;;;;;;;3.70;2.20;;;18.80;91.40;;;;;;5104383;28;20191;-86
2022/09/10 09:27:18;;;;;;;3.00;2.17;;;18.80;90.90;;;;;;5105949;28;20201;-86
2022/09/10 09:30:05;;;;;;;2.97;2.23;;;18.70;93.60;;;;;;5096371;28;20206;-86
2022/09/10 09:32:35;;;;;;;2.67;2.20;;;18.80;93.60;;;;;;5088299;28;20200;-87
2022/09/10 09:35:26;;;;;;;2.33;2.03;;;18.70;92.10;;;;;;5102462;28;20553;-86
2022/09/10 09:38:05;;;;;;;3.43;2.20;;;18.70;92.70;;;;;;5092374;28;20229;-87
2022/09/10 09:40:41;;;;;;;5.75;2.15;;;18.70;92.70;;;;;;5090572;28;20232;-87
2022/09/10 09:43:32;;;;;;;3.28;2.20;;;19.20;92.50;;;;;;5102724;28;20193;-87
2022/09/10 09:45:58;;;;;;;4.85;2.35;;;19.50;89.00;;;;;;5102382;28;20181;-86
2022/09/10 09:48:28;;;;;;;4.05;2.28;;;19.40;86.50;;;;;;5100842;28;20182;-86
2022/09/10 09:50:59;;;;;;;3.63;2.10;;;19.30;88.00;;;;;;5100371;28;20242;-86
2022/09/10 09:53:27;;;;;;;3.22;2.13;;;19.10;88.70;;;;;;5098981;28;20194;-86
2022/09/10 09:55:55;;;;;;;3.15;2.40;;;19.20;86.50;;;;;;5093377;28;20183;-86
2022/09/10 09:58:20;;;;;;;2.90;2.20;;;19.20;87.60;;;;;;5101329;28;20273;-86
2022/09/10 10:01:03;;;;;;;3.40;2.17;;;19.30;88.40;;;;;;5098531;28;20241;-85
2022/09/10 10:03:30;;;;;;;5.25;2.40;;;19.20;88.70;;;;;;5100613;28;20182;-85
2022/09/10 10:06:05;;;;;;;2.53;1.95;;;19.10;89.70;;;;;;5095381;28;20255;-85
2022/09/10 10:08:38;;;;;;;2.30;1.90;;;18.90;89.20;;;;;;5094907;28;20201;-85
2022/09/10 10:11:05;;;;;;;2.88;2.00;;;18.90;91.40;;;;;;5104569;28;20186;-86
2022/09/10 10:13:42;;;;;;;2.30;2.10;;;18.90;89.20;;;;;;5106961;28;20185;-85
2022/09/10 10:16:21;;;;;;;4.63;2.22;;;18.90;89.70;;;;;;5101301;28;20178;-85
2022/09/10 10:18:47;;;;;;;2.40;2.10;;;19.10;90.90;;;;;;5092612;28;20269;-84
2022/09/10 10:21:18;;;;;;;2.22;1.80;;;19.20;86.80;;;;;;5101650;28;20238;-84
2022/09/10 10:23:45;;;;;;;3.13;2.33;;;19.30;86.20;;;;;;5098885;28;20276;-86
2022/09/10 10:26:20;;;;;;;3.47;2.28;;;19.20;87.10;;;;;;5100414;28;20275;-85
2022/09/10 10:29:15;;;;;;;2.58;2.15;;;19.10;88.30;;;;;;5093515;28;20242;-85
2022/09/10 10:31:46;;;;;;;3.80;2.67;;;19.30;84.70;;;;;;5095781;28;20193;-85
2022/09/10 10:34:32;;;;;;;2.55;2.00;;;19.60;85.00;;;;;;5095554;28;20195;-86
2022/09/10 10:37:25;;;;;;;3.25;2.25;;;19.70;85.80;;;;;;5098116;28;20210;-85
2022/09/10 10:40:06;;;;;;;2.80;2.60;;;19.80;81.20;;;;;;5099522;28;20219;-86
2022/09/10 10:42:38;;;;;;;6.38;2.17;;;19.90;79.70;;;;;;5097504;28;20186;-85
2022/09/10 10:45:32;;;;;;;4.07;2.50;;;20.10;79.20;;;;;;5095433;28;20712;-86
2022/09/10 10:48:09;;;;;;;2.95;2.20;;;20.10;80.10;;;;;;5097383;28;20205;-86
2022/09/10 10:51:08;;;;;;;4.20;2.80;;;19.80;80.20;;;;;;5097366;28;20198;-85
2022/09/10 10:53:47;;;;;;;7.25;2.58;;;19.50;77.30;;;;;;5091123;28;20665;-87
2022/09/10 10:56:26;;;;;;;4.35;2.92;;;19.30;81.90;;;;;;5102001;28;20272;-86
2022/09/10 10:59:24;;;;;;;3.25;2.35;;;19.20;81.90;;;;;;5093480;28;20201;-86
2022/09/10 11:01:56;;;;;;;3.80;2.25;;;19.20;84.20;;;;;;5091660;28;20185;-86
2022/09/10 11:04:33;;;;;;;3.63;2.60;;;19.30;82.90;;;;;;5097993;28;20197;-86
2022/09/10 11:07:17;;;;;;;3.25;2.30;;;19.40;83.50;;;;;;5096430;28;20183;-87
2022/09/10 11:10:03;;;;;;;4.03;2.45;;;19.60;81.60;;;;;;5094240;28;20226;-86
2022/09/10 11:12:54;;;;;;;4.00;2.75;;;19.90;81.00;;;;;;5093126;28;20178;-86
2022/09/10 11:15:38;;;;;;;3.40;2.40;;;20.20;80.20;;;;;;5092049;28;20333;-86
2022/09/10 11:18:26;;;;;;;3.13;2.30;;;20.60;79.00;;;;;;5088629;28;20175;-86
2022/09/10 11:21:12;;;;;;;4.00;2.60;;;20.80;76.40;;;;;;5100112;28;20203;-87
2022/09/10 11:23:44;;;;;;;5.20;2.78;;;21.00;74.40;;;;;;5087364;28;20188;-86
2022/09/10 11:26:29;;;;;;;3.15;2.22;;;21.30;71.30;;;;;;5100167;28;20626;-85
2022/09/10 11:29:10;;;;;;;4.32;2.33;;;21.10;68.40;;;;;;5094652;28;20202;-86
2022/09/10 11:31:41;;;;;;;2.50;2.17;;;21.00;67.80;;;;;;5091736;28;20199;-87
2022/09/10 11:34:18;;;;;;;4.72;2.40;;;20.90;68.60;;;;;;5098816;28;20197;-87
2022/09/10 11:36:54;;;;;;;4.00;2.47;;;20.80;67.90;;;;;;5103016;28;20274;-88
2022/09/10 11:39:36;;;;;;;3.85;2.42;;;20.70;68.50;;;;;;5093221;28;20202;-86
2022/09/10 11:42:26;;;;;;;2.90;2.20;;;20.50;68.40;;;;;;5098612;28;20179;-86
2022/09/10 11:45:02;;;;;;;2.88;2.30;;;21.10;68.50;;;;;;5105263;28;20197;-86
2022/09/10 11:47:38;;;;;;;2.90;2.15;;;21.50;66.90;;;;;;5104753;28;20361;-86
2022/09/10 11:50:29;;;;;;;3.25;2.50;;;21.90;63.60;;;;;;5103897;28;20208;-86
2022/09/10 11:52:58;;;;;;;3.97;2.40;;;22.30;65.90;;;;;;5089110;28;20235;-86
2022/09/10 11:55:35;;;;;;;4.38;2.40;;;22.20;65.10;;;;;;5094889;28;20473;-87
2022/09/10 11:58:11;;;;;;;3.60;2.35;;;21.80;63.90;;;;;;5100261;28;20185;-87
2022/09/10 12:00:53;;;;;;;2.53;2.28;;;21.40;65.30;;;;;;5098697;28;20222;-86
2022/09/10 12:04:00;;;;;;;3.00;2.38;;;21.20;64.60;;;;;;5097525;28;20194;-87
2022/09/10 12:06:51;;;;;;;3.25;2.22;;;20.80;69.60;;;;;;5093791;28;20171;-86
2022/09/10 12:09:26;;;;;;;4.70;2.13;;;20.60;68.80;;;;;;5096974;28;20241;-87
2022/09/10 12:12:11;;;;;;;4.10;2.10;;;20.40;70.20;;;;;;5087929;28;20201;-85
2022/09/10 12:14:39;;;;;;;2.88;2.30;;;20.40;69.90;;;;;;5094216;28;20175;-85
2022/09/10 12:17:28;;;;;;;3.85;2.55;;;20.50;69.90;;;;;;5106429;28;20179;-85
2022/09/10 12:19:57;;;;;;;5.95;2.40;;;20.50;69.80;;;;;;5104374;28;20562;-85
2022/09/10 12:22:39;;;;;;;4.60;2.50;;;20.40;70.80;;;;;;5108960;28;20187;-87
2022/09/10 12:25:06;;;;;;;2.80;2.20;;;20.30;72.60;;;;;;5094012;28;20171;-85
2022/09/10 12:27:48;;;;;;;4.18;2.33;;;20.40;73.10;;;;;;5107471;28;20206;-86
2022/09/10 12:30:23;;;;;;;3.00;2.30;;;19.70;82.10;;;;;;5094524;28;20223;-85
2022/09/10 12:32:49;;;;;;;3.63;2.35;;;19.60;85.00;;;;;;5098730;28;20189;-85
2022/09/10 12:35:31;;;;;;;3.65;2.40;;;19.10;87.60;;;;;;5104427;28;20179;-86
2022/09/10 12:38:34;;;;;;;2.90;2.40;;;19.00;90.50;;;;;;5094760;28;20203;-85
2022/09/10 12:41:02;;;;;;;2.75;2.33;;;18.90;91.70;;;;;;5101538;28;20193;-86
2022/09/10 12:43:39;;;;;;;4.35;2.50;;;18.90;91.40;;;;;;5101014;28;20182;-85
2022/09/10 12:46:08;;;;;;;5.38;2.70;;;18.90;93.50;;;;;;5098163;28;20261;-86
2022/09/10 12:48:46;;;;;;;3.60;2.38;;;18.80;93.70;;;;;;5101547;28;20178;-85
2022/09/10 12:51:18;;;;;;;4.82;2.50;;;18.80;94.20;;;;;;5096550;28;20253;-87
2022/09/10 12:54:02;;;;;;;3.67;2.33;;;18.80;92.60;;;;;;5096241;28;20186;-86
2022/09/10 12:56:56;;;;;;;2.75;2.47;;;19.10;92.70;;;;;;5100036;28;20236;-86
2022/09/10 12:59:30;;;;;;;2.55;2.33;;;19.40;93.00;;;;;;5100852;28;20453;-86
2022/09/10 13:01:56;;;;;;;3.47;2.40;;;19.50;89.50;;;;;;5101205;28;20189;-85
2022/09/10 13:04:31;;;;;;;2.60;2.40;;;19.40;84.20;;;;;;5103783;28;20711;-86
2022/09/10 13:07:03;;;;;;;3.47;2.25;;;19.50;84.80;;;;;;5096205;28;20202;-85
2022/09/10 13:09:35;;;;;;;3.42;2.25;;;19.50;86.40;;;;;;5097498;28;20242;-84